Garden City Regional Airport Garden City US
ICAO: KGCK
IATA: GCK
Category: Medium
Scheduled Services: Yes

Elevation: 2891 ft
TransAlt. 18000 ft.

Airport Communications:
ASOS:121.325
KANSAS CITY CNTR:125.2
CTAF:118.15
GND:119
WICHITA RDO:122.45
TWR:118.15
UNICOM:122.95

KGCK Zoom In..

Runways:

(A) RW 12 length 5700 ft width 100 ft
---- / hdg 126

(B) RW 17 length 7299 ft width 100 ft
---- / hdg 171

(C) RW 30 length 5700 ft width 100 ft
---- / hdg 306

(D) RW 35 length 7299 ft width 100 ft
ILS 109.90 / hdg 351

Location; KGCK
Day. 20 / Time. 19.54 Zulu
* Altimeter: 29.89
* Temperature: 37° c. 98.6°f.
* Wind from: 160° Speed 11 kn with Gusts up to 16 kn.
Dewpoint: 16° c.
Visibility: 10 Statute Miles.
Clouds: Clear (automated report).

KGCK 201954Z 16011G16KT 10SM CLR 37/16 A2989 RMK AO2 SLP080 T03670161


Wind From 160°
Speed 11 kn.

 
 
jpsmedia.com for Web Design worldairports.se 2018   terms of use